createdAt,value
2023-03-08T00:01:49.571Z,4.28
2023-03-08T00:04:56.240Z,4.23
2023-03-08T00:08:02.083Z,4.23
2023-03-08T00:11:07.659Z,4.29
2023-03-08T00:14:13.659Z,4.35
2023-03-08T00:17:20.245Z,4.47
2023-03-08T00:20:26.384Z,4.45
2023-03-08T00:23:32.952Z,4.47
2023-03-08T00:26:38.182Z,4.50
2023-03-08T00:29:43.913Z,4.55
2023-03-08T00:32:50.267Z,4.62
2023-03-08T00:35:56.103Z,4.77
2023-03-08T00:39:02.778Z,4.84
2023-03-08T00:42:09.004Z,4.92
2023-03-08T00:45:14.183Z,4.95
2023-03-08T00:48:20.615Z,4.92
2023-03-08T00:51:31.198Z,4.95
2023-03-08T00:54:37.472Z,5.00
2023-03-08T00:57:43.527Z,5.09
2023-03-08T01:00:49.704Z,5.14
2023-03-08T01:03:54.398Z,5.18
2023-03-08T01:07:01.755Z,5.19
2023-03-08T01:10:11.776Z,5.24
2023-03-08T01:13:19.949Z,5.26
2023-03-08T01:16:39.241Z,5.25
2023-03-08T01:19:45.143Z,5.22
2023-03-08T01:22:44.912Z,5.13
2023-03-08T01:25:37.455Z,5.10
2023-03-08T01:28:43.189Z,5.12
2023-03-08T01:31:47.783Z,5.11
2023-03-08T01:34:54.904Z,5.14
2023-03-08T01:38:03.202Z,5.18
2023-03-08T01:41:13.801Z,5.23
2023-03-08T01:44:16.151Z,5.22
2023-03-08T01:47:27.608Z,5.19
2023-03-08T01:50:35.781Z,5.23
2023-03-08T01:53:41.627Z,5.22
2023-03-08T01:56:47.741Z,5.21
2023-03-08T01:59:54.263Z,5.21
2023-03-08T02:03:19.802Z,5.18
2023-03-08T02:06:26.058Z,5.17
2023-03-08T02:09:32.705Z,5.18
2023-03-08T02:12:39.271Z,5.19
2023-03-08T02:15:45.764Z,5.20
2023-03-08T02:18:51.975Z,5.21
2023-03-08T02:21:57.640Z,5.24
2023-03-08T02:25:03.495Z,5.25
2023-03-08T02:28:10.924Z,5.27
2023-03-08T02:31:17.220Z,5.30
2023-03-08T02:34:22.831Z,5.28
2023-03-08T02:37:29.658Z,5.17
2023-03-08T02:40:35.632Z,5.11
2023-03-08T02:43:41.599Z,5.12
2023-03-08T02:46:47.209Z,5.12
2023-03-08T02:49:52.707Z,5.06
2023-03-08T02:52:58.441Z,5.04
2023-03-08T02:56:03.096Z,5.08
2023-03-08T02:59:08.678Z,5.05
2023-03-08T03:02:15.103Z,5.04
2023-03-08T03:05:21.817Z,5.03
2023-03-08T03:08:28.447Z,5.01
2023-03-08T03:11:36.846Z,4.98
2023-03-08T03:14:43.208Z,5.02
2023-03-08T03:17:49.514Z,5.03
2023-03-08T03:20:55.378Z,5.01
2023-03-08T03:24:01.103Z,5.01
2023-03-08T03:27:13.974Z,5.00
2023-03-08T03:30:20.633Z,4.94
2023-03-08T03:33:26.519Z,4.94
2023-03-08T03:36:35.891Z,4.94
2023-03-08T03:39:41.863Z,4.95
2023-03-08T03:42:48.547Z,4.94
2023-03-08T03:45:55.360Z,4.94
2023-03-08T03:49:02.021Z,4.92
2023-03-08T03:52:09.122Z,4.96
2023-03-08T03:55:16.938Z,4.96
2023-03-08T03:58:16.487Z,4.95
2023-03-08T04:01:26.004Z,4.93
2023-03-08T04:04:33.178Z,4.90
2023-03-08T04:07:39.215Z,4.91
2023-03-08T04:10:43.815Z,4.91
2023-03-08T04:13:49.901Z,4.86
2023-03-08T04:16:51.260Z,4.85
2023-03-08T04:19:52.194Z,4.84
2023-03-08T04:22:59.165Z,4.83
2023-03-08T04:26:08.242Z,4.81
2023-03-08T04:29:13.984Z,4.81
2023-03-08T04:32:21.913Z,4.80
2023-03-08T04:35:28.303Z,4.81
2023-03-08T04:38:35.235Z,4.83
2023-03-08T04:41:41.793Z,4.86
2023-03-08T04:44:51.624Z,4.91
2023-03-08T04:47:58.135Z,4.92
2023-03-08T04:51:10.806Z,4.97
2023-03-08T04:54:17.359Z,5.05
2023-03-08T04:57:24.579Z,5.11
2023-03-08T05:00:30.981Z,5.13
2023-03-08T05:03:37.769Z,5.17
2023-03-08T05:06:36.895Z,5.20
2023-03-08T05:09:44.817Z,5.23
2023-03-08T05:12:50.815Z,5.27
2023-03-08T05:15:57.765Z,5.30
2023-03-08T05:19:02.836Z,5.31
2023-03-08T05:22:12.733Z,5.31
2023-03-08T05:25:20.353Z,5.37
2023-03-08T05:28:26.986Z,5.47
2023-03-08T05:31:36.268Z,5.60
2023-03-08T05:34:41.784Z,5.69
2023-03-08T05:37:49.383Z,5.72
2023-03-08T05:40:57.314Z,5.77
2023-03-08T05:44:05.814Z,5.81
2023-03-08T05:47:11.479Z,5.87
2023-03-08T05:50:17.128Z,5.93
2023-03-08T05:53:23.838Z,5.96
2023-03-08T05:56:35.861Z,6.01
2023-03-08T05:59:47.975Z,6.11
2023-03-08T06:02:53.955Z,6.11
2023-03-08T06:05:59.883Z,6.14
2023-03-08T06:09:05.809Z,6.21
2023-03-08T06:12:13.648Z,6.18
2023-03-08T06:15:22.909Z,6.18
2023-03-08T06:18:30.855Z,6.22
2023-03-08T06:21:38.542Z,6.22
2023-03-08T06:24:44.264Z,6.31
2023-03-08T06:27:52.937Z,6.35
2023-03-08T06:31:02.471Z,6.37
2023-03-08T06:34:08.309Z,6.46
2023-03-08T06:37:14.635Z,6.56
2023-03-08T06:40:20.373Z,6.62
2023-03-08T06:43:27.261Z,6.61
2023-03-08T06:46:26.766Z,6.62
2023-03-08T06:49:13.548Z,6.68
2023-03-08T06:52:06.953Z,6.68
2023-03-08T06:54:53.253Z,6.71
2023-03-08T06:57:46.437Z,6.75
2023-03-08T07:00:33.552Z,6.77
2023-03-08T07:03:26.254Z,6.79
2023-03-08T07:06:21.812Z,6.81
2023-03-08T07:09:28.070Z,6.85
2023-03-08T07:12:33.942Z,7.03
2023-03-08T07:15:40.686Z,6.98
2023-03-08T07:18:48.684Z,6.95
2023-03-08T07:21:54.585Z,7.01
2023-03-08T07:25:03.362Z,7.11
2023-03-08T07:28:09.202Z,7.17
2023-03-08T07:31:14.210Z,7.18
2023-03-08T07:34:20.516Z,7.23
2023-03-08T07:37:28.792Z,7.31
2023-03-08T07:40:34.161Z,7.29
2023-03-08T07:43:39.659Z,7.38
2023-03-08T07:46:47.932Z,7.33
2023-03-08T07:49:53.124Z,7.44
2023-03-08T07:52:59.022Z,7.49
2023-03-08T07:56:05.426Z,7.45
2023-03-08T07:59:14.920Z,7.43
2023-03-08T08:02:20.929Z,7.47
2023-03-08T08:05:28.049Z,7.52
2023-03-08T08:08:34.269Z,7.57
2023-03-08T08:11:41.744Z,7.63
2023-03-08T08:14:47.229Z,7.74
2023-03-08T08:17:53.421Z,7.83
2023-03-08T08:21:00.038Z,7.94
2023-03-08T08:24:05.876Z,8.10
2023-03-08T08:27:15.182Z,8.30
2023-03-08T08:30:21.857Z,8.51
2023-03-08T08:33:27.349Z,8.66
2023-03-08T08:36:34.208Z,8.80
2023-03-08T08:39:40.941Z,8.87
2023-03-08T08:42:47.364Z,9.03
2023-03-08T08:45:58.918Z,9.13
2023-03-08T08:49:04.707Z,9.19
2023-03-08T08:52:11.510Z,9.28
2023-03-08T08:55:20.117Z,9.37
2023-03-08T08:58:31.954Z,9.48
2023-03-08T09:01:46.589Z,9.60
2023-03-08T09:04:57.592Z,9.73
2023-03-08T09:08:11.665Z,9.87
2023-03-08T09:11:24.509Z,10.02
2023-03-08T09:14:35.111Z,10.15
2023-03-08T09:17:43.482Z,10.34
2023-03-08T09:20:53.812Z,10.52
2023-03-08T09:24:02.834Z,10.60
2023-03-08T09:27:11.156Z,10.76
2023-03-08T09:30:19.383Z,10.87
2023-03-08T09:33:20.178Z,10.98
2023-03-08T09:36:25.391Z,11.00
2023-03-08T09:39:31.793Z,11.04
2023-03-08T09:42:45.680Z,11.15
2023-03-08T09:45:50.878Z,11.31
2023-03-08T09:48:57.966Z,11.57
2023-03-08T09:52:05.234Z,11.83
2023-03-08T09:55:11.099Z,12.05
2023-03-08T09:58:49.278Z,12.23
2023-03-08T10:02:20.994Z,12.34
2023-03-08T10:06:07.397Z,12.54
2023-03-08T10:09:44.217Z,12.65
2023-03-08T10:13:32.025Z,12.71
2023-03-08T10:16:47.043Z,12.81
2023-03-08T10:20:15.930Z,12.83
2023-03-08T10:23:34.494Z,12.89
2023-03-08T10:26:40.453Z,12.90
2023-03-08T10:29:46.587Z,12.96
2023-03-08T10:32:58.016Z,13.12
2023-03-08T10:36:17.258Z,13.33
2023-03-08T10:39:17.973Z,13.40
2023-03-08T10:42:30.734Z,13.45
2023-03-08T10:45:37.608Z,13.51
2023-03-08T10:48:43.556Z,13.54
2023-03-08T10:51:49.669Z,13.55
2023-03-08T10:54:57.461Z,13.55
2023-03-08T10:58:12.954Z,13.53
2023-03-08T11:01:39.046Z,13.57
2023-03-08T11:04:45.701Z,13.64
2023-03-08T11:07:50.773Z,13.73
2023-03-08T11:10:56.171Z,13.78
2023-03-08T11:14:02.372Z,13.93
2023-03-08T11:17:21.390Z,13.94
2023-03-08T11:20:45.959Z,13.99
2023-03-08T11:23:56.616Z,13.99
2023-03-08T11:27:15.221Z,13.97
2023-03-08T11:30:56.362Z,13.93
2023-03-08T11:34:21.892Z,13.92
2023-03-08T11:37:38.237Z,14.02
2023-03-08T11:41:30.006Z,14.14
2023-03-08T11:44:46.775Z,14.16
2023-03-08T11:48:13.597Z,14.14
2023-03-08T11:51:29.489Z,14.16
2023-03-08T11:54:58.282Z,14.09
2023-03-08T11:58:03.268Z,13.96
2023-03-08T12:01:15.797Z,13.81
2023-03-08T12:04:30.047Z,13.74
2023-03-08T12:07:59.220Z,13.69
2023-03-08T12:11:34.022Z,13.72
2023-03-08T12:14:52.584Z,13.77
2023-03-08T12:18:03.194Z,13.85
2023-03-08T12:21:16.840Z,13.89
2023-03-08T12:25:00.200Z,13.96
2023-03-08T12:28:40.895Z,14.02
2023-03-08T12:31:49.147Z,14.02
2023-03-08T12:35:00.191Z,14.01
2023-03-08T12:38:18.294Z,14.07
2023-03-08T12:41:44.433Z,14.10
2023-03-08T12:44:51.099Z,14.20
2023-03-08T12:47:57.679Z,14.28
2023-03-08T12:51:14.089Z,14.30
2023-03-08T12:54:19.525Z,14.27
2023-03-08T12:57:37.472Z,14.24
2023-03-08T13:00:51.246Z,14.20
2023-03-08T13:03:57.351Z,14.20
2023-03-08T13:07:26.851Z,14.24
2023-03-08T13:10:37.734Z,14.37
2023-03-08T13:14:05.372Z,14.49
2023-03-08T13:17:12.956Z,14.54
2023-03-08T13:20:43.914Z,14.55
2023-03-08T13:23:57.086Z,14.40
2023-03-08T13:27:17.561Z,14.33
2023-03-08T13:30:42.366Z,14.31
2023-03-08T13:33:59.132Z,14.31
2023-03-08T13:37:05.001Z,14.25
2023-03-08T13:40:14.242Z,14.19
2023-03-08T13:43:20.721Z,14.23
2023-03-08T13:46:27.939Z,14.13
2023-03-08T13:49:51.727Z,14.03
2023-03-08T13:52:57.032Z,13.99
2023-03-08T13:56:08.514Z,13.94
2023-03-08T13:59:15.311Z,13.89
2023-03-08T14:02:32.744Z,13.84
2023-03-08T14:05:47.254Z,13.80
2023-03-08T14:08:53.058Z,13.77
2023-03-08T14:11:52.213Z,13.74
2023-03-08T14:15:00.900Z,13.69
2023-03-08T14:18:08.808Z,13.63
2023-03-08T14:21:37.621Z,13.57
2023-03-08T14:24:48.499Z,13.48
2023-03-08T14:27:55.697Z,13.37
2023-03-08T14:31:04.076Z,13.27
2023-03-08T14:34:16.375Z,13.20
2023-03-08T14:37:37.707Z,13.12
2023-03-08T14:40:41.680Z,13.04
2023-03-08T14:43:48.360Z,12.96
2023-03-08T14:46:54.324Z,12.86
2023-03-08T14:49:59.757Z,12.77
2023-03-08T14:53:08.774Z,12.66
2023-03-08T14:56:15.262Z,12.54
2023-03-08T14:59:27.182Z,12.43
2023-03-08T15:02:27.815Z,12.28
2023-03-08T15:05:35.103Z,12.13
2023-03-08T15:08:41.190Z,11.93
2023-03-08T15:11:47.260Z,11.78
2023-03-08T15:14:52.540Z,11.65
2023-03-08T15:17:59.600Z,11.54
2023-03-08T15:20:57.301Z,11.45
2023-03-08T15:24:03.203Z,11.35
2023-03-08T15:27:08.358Z,11.24
2023-03-08T15:30:14.816Z,11.12
2023-03-08T15:33:21.246Z,11.01
2023-03-08T15:36:23.421Z,10.89
2023-03-08T15:39:31.658Z,10.74
2023-03-08T15:42:39.036Z,10.61
2023-03-08T15:45:44.735Z,10.49
2023-03-08T15:48:52.806Z,10.40
2023-03-08T15:51:59.343Z,10.32
2023-03-08T15:55:04.882Z,10.23
2023-03-08T15:58:11.979Z,10.12
2023-03-08T16:01:16.622Z,10.03
2023-03-08T16:04:22.007Z,9.94
2023-03-08T16:07:32.215Z,9.83
2023-03-08T16:10:37.581Z,9.73
2023-03-08T16:13:44.629Z,9.63
2023-03-08T16:16:50.308Z,9.56
2023-03-08T16:19:56.214Z,9.53
2023-03-08T16:23:02.818Z,9.46
2023-03-08T16:26:18.024Z,9.42
2023-03-08T16:29:23.790Z,9.40
2023-03-08T16:32:31.578Z,9.36
2023-03-08T16:35:36.754Z,9.31
2023-03-08T16:38:44.773Z,9.30
2023-03-08T16:41:52.500Z,9.30
2023-03-08T16:44:57.163Z,9.30
2023-03-08T16:47:43.607Z,9.30
2023-03-08T16:50:36.883Z,9.24
2023-03-08T16:53:23.015Z,9.21
2023-03-08T16:56:16.776Z,9.15
2023-03-08T16:59:21.906Z,9.08
2023-03-08T17:02:23.879Z,9.01
2023-03-08T17:05:17.333Z,8.89
2023-03-08T17:08:23.165Z,8.79
2023-03-08T17:11:35.170Z,8.69
2023-03-08T17:14:42.907Z,8.60
2023-03-08T17:17:49.708Z,8.53
2023-03-08T17:20:49.762Z,8.47
2023-03-08T17:23:57.433Z,8.39
2023-03-08T17:27:05.086Z,8.32
2023-03-08T17:30:11.497Z,8.27
2023-03-08T17:33:19.911Z,8.22
2023-03-08T17:36:26.088Z,8.20
2023-03-08T17:39:32.661Z,8.18
2023-03-08T17:42:39.379Z,8.18
2023-03-08T17:45:45.903Z,8.16
2023-03-08T17:48:52.252Z,8.17
2023-03-08T17:51:57.148Z,8.16
2023-03-08T17:55:03.460Z,8.19
2023-03-08T17:58:09.056Z,8.24
2023-03-08T18:01:26.642Z,8.25
2023-03-08T18:04:32.204Z,8.26
2023-03-08T18:07:41.295Z,8.31
2023-03-08T18:10:46.030Z,8.36
2023-03-08T18:13:52.498Z,8.39
2023-03-08T18:16:57.738Z,8.42
2023-03-08T18:20:03.404Z,8.44
2023-03-08T18:23:10.865Z,8.44
2023-03-08T18:26:17.394Z,8.43
2023-03-08T18:29:23.855Z,8.42
2023-03-08T18:32:30.732Z,8.45
2023-03-08T18:35:36.952Z,8.44
2023-03-08T18:38:43.189Z,8.39
2023-03-08T18:41:49.843Z,8.34
2023-03-08T18:44:55.827Z,8.29
2023-03-08T18:48:05.704Z,8.31
2023-03-08T18:51:16.706Z,8.26
2023-03-08T18:54:30.464Z,8.24
2023-03-08T18:57:35.607Z,8.21
2023-03-08T19:00:41.480Z,8.19
2023-03-08T19:03:47.783Z,8.20
2023-03-08T19:06:54.342Z,8.18
2023-03-08T19:09:59.803Z,8.16
2023-03-08T19:13:05.567Z,8.10
2023-03-08T19:16:14.191Z,8.07
2023-03-08T19:19:16.984Z,8.07
2023-03-08T19:22:09.491Z,8.07
2023-03-08T19:25:15.519Z,8.05
2023-03-08T19:28:22.220Z,8.05
2023-03-08T19:31:32.926Z,8.03
2023-03-08T19:34:41.587Z,7.99
2023-03-08T19:37:48.614Z,7.92
2023-03-08T19:41:06.987Z,7.87
2023-03-08T19:44:14.401Z,7.79
2023-03-08T19:47:21.107Z,7.79
2023-03-08T19:50:21.026Z,7.74
2023-03-08T19:53:27.508Z,7.67
2023-03-08T19:56:34.462Z,7.63
2023-03-08T19:59:39.487Z,7.63
2023-03-08T20:02:46.414Z,7.55
2023-03-08T20:05:58.273Z,7.43
2023-03-08T20:08:58.954Z,7.32
2023-03-08T20:11:51.252Z,7.23
2023-03-08T20:15:00.457Z,7.17
2023-03-08T20:18:06.677Z,7.18
2023-03-08T20:21:13.311Z,7.10
2023-03-08T20:24:21.837Z,7.06
2023-03-08T20:27:28.347Z,7.04
2023-03-08T20:30:33.764Z,7.05
2023-03-08T20:33:40.048Z,7.03
2023-03-08T20:36:47.541Z,7.00
2023-03-08T20:39:53.778Z,7.01
2023-03-08T20:43:02.051Z,7.02
2023-03-08T20:46:10.009Z,7.05
2023-03-08T20:49:19.279Z,7.06
2023-03-08T20:52:24.585Z,7.06
2023-03-08T20:55:31.292Z,7.06
2023-03-08T20:58:38.103Z,7.05
2023-03-08T21:01:46.657Z,7.03
2023-03-08T21:04:51.816Z,7.03
2023-03-08T21:07:58.379Z,7.00
2023-03-08T21:11:06.499Z,7.03
2023-03-08T21:14:11.811Z,6.99
2023-03-08T21:17:18.542Z,6.98
2023-03-08T21:20:25.135Z,7.02
2023-03-08T21:23:31.776Z,6.98
2023-03-08T21:26:38.332Z,6.95
2023-03-08T21:29:44.037Z,6.99
2023-03-08T21:32:49.699Z,7.09
2023-03-08T21:35:56.444Z,7.17
2023-03-08T21:39:07.054Z,7.21
2023-03-08T21:42:13.577Z,7.24
2023-03-08T21:45:20.462Z,7.23
2023-03-08T21:48:20.490Z,7.29
2023-03-08T21:51:26.589Z,7.35
2023-03-08T21:54:33.036Z,7.33
2023-03-08T21:57:38.826Z,7.34
2023-03-08T22:00:44.392Z,7.33
2023-03-08T22:03:49.560Z,7.33
2023-03-08T22:06:55.813Z,7.38
2023-03-08T22:10:01.979Z,7.40
2023-03-08T22:13:08.041Z,7.44
2023-03-08T22:16:14.479Z,7.48
2023-03-08T22:19:19.867Z,7.51
2023-03-08T22:22:25.437Z,7.51
2023-03-08T22:25:30.776Z,7.50
2023-03-08T22:28:38.016Z,7.48
2023-03-08T22:31:44.575Z,7.46
2023-03-08T22:34:50.668Z,7.42
2023-03-08T22:37:55.853Z,7.36
2023-03-08T22:41:02.992Z,7.33
2023-03-08T22:44:09.927Z,7.34
2023-03-08T22:47:17.404Z,7.29
2023-03-08T22:50:22.984Z,7.22
2023-03-08T22:53:29.231Z,7.21
2023-03-08T22:56:41.647Z,7.23
2023-03-08T22:59:47.955Z,7.23
2023-03-08T23:02:56.729Z,7.25
2023-03-08T23:06:03.328Z,7.29
2023-03-08T23:09:15.151Z,7.29
2023-03-08T23:12:22.163Z,7.29
2023-03-08T23:15:27.962Z,7.30
2023-03-08T23:18:33.727Z,7.27
2023-03-08T23:21:42.284Z,7.26
2023-03-08T23:24:48.064Z,7.25
2023-03-08T23:27:54.154Z,7.29
2023-03-08T23:31:00.339Z,7.29
2023-03-08T23:34:07.219Z,7.26
2023-03-08T23:37:13.666Z,7.25
2023-03-08T23:40:21.722Z,7.24
2023-03-08T23:43:27.528Z,7.26
2023-03-08T23:46:33.901Z,7.28
2023-03-08T23:49:39.671Z,7.32
2023-03-08T23:52:45.398Z,7.29
2023-03-08T23:55:55.028Z,7.30
2023-03-08T23:59:02.771Z,7.29
